sensor_id;sensor_type;location;lat;lon;timestamp;temperature;humidity
4687;DHT22;2357;47.316;-1.348;2023-12-04T00:02:13;6.00;99.90
4687;DHT22;2357;47.316;-1.348;2023-12-04T00:04:39;5.90;99.90
4687;DHT22;2357;47.316;-1.348;2023-12-04T00:07:04;5.90;99.90
4687;DHT22;2357;47.316;-1.348;2023-12-04T00:09:30;6.00;99.90
4687;DHT22;2357;47.316;-1.348;2023-12-04T00:11:55;5.90;99.90
4687;DHT22;2357;47.316;-1.348;2023-12-04T00:14:21;6.00;99.90
4687;DHT22;2357;47.316;-1.348;2023-12-04T00:16:47;6.00;99.90
4687;DHT22;2357;47.316;-1.348;2023-12-04T00:19:12;6.00;99.90
4687;DHT22;2357;47.316;-1.348;2023-12-04T00:21:38;6.10;99.90
4687;DHT22;2357;47.316;-1.348;2023-12-04T00:24:04;6.00;99.90
4687;DHT22;2357;47.316;-1.348;2023-12-04T00:26:30;6.00;99.90
4687;DHT22;2357;47.316;-1.348;2023-12-04T00:28:55;6.00;99.90
4687;DHT22;2357;47.316;-1.348;2023-12-04T00:31:21;6.10;99.90
4687;DHT22;2357;47.316;-1.348;2023-12-04T00:33:46;6.10;99.90
4687;DHT22;2357;47.316;-1.348;2023-12-04T00:36:13;6.10;99.90
4687;DHT22;2357;47.316;-1.348;2023-12-04T00:38:39;6.20;99.90
4687;DHT22;2357;47.316;-1.348;2023-12-04T00:41:05;6.10;99.90
4687;DHT22;2357;47.316;-1.348;2023-12-04T00:43:30;6.10;99.90
4687;DHT22;2357;47.316;-1.348;2023-12-04T00:45:56;6.10;99.90
4687;DHT22;2357;47.316;-1.348;2023-12-04T00:48:22;6.10;99.90
4687;DHT22;2357;47.316;-1.348;2023-12-04T00:50:47;6.20;99.90
4687;DHT22;2357;47.316;-1.348;2023-12-04T00:53:13;6.10;99.90
4687;DHT22;2357;47.316;-1.348;2023-12-04T00:55:39;6.20;99.90
4687;DHT22;2357;47.316;-1.348;2023-12-04T00:58:04;6.10;99.90
4687;DHT22;2357;47.316;-1.348;2023-12-04T01:00:30;6.20;99.90
4687;DHT22;2357;47.316;-1.348;2023-12-04T01:02:55;6.20;99.90
4687;DHT22;2357;47.316;-1.348;2023-12-04T01:05:21;6.20;99.90
4687;DHT22;2357;47.316;-1.348;2023-12-04T01:07:46;6.20;99.90
4687;DHT22;2357;47.316;-1.348;2023-12-04T01:10:12;6.20;99.90
4687;DHT22;2357;47.316;-1.348;2023-12-04T01:12:37;6.20;99.90
4687;DHT22;2357;47.316;-1.348;2023-12-04T01:15:03;6.30;99.90
4687;DHT22;2357;47.316;-1.348;2023-12-04T01:17:29;6.40;99.90
4687;DHT22;2357;47.316;-1.348;2023-12-04T01:19:55;6.40;99.90
4687;DHT22;2357;47.316;-1.348;2023-12-04T01:22:20;6.30;99.90
4687;DHT22;2357;47.316;-1.348;2023-12-04T01:24:46;6.30;99.90
4687;DHT22;2357;47.316;-1.348;2023-12-04T01:27:12;6.30;99.90
4687;DHT22;2357;47.316;-1.348;2023-12-04T01:29:38;6.30;99.90
4687;DHT22;2357;47.316;-1.348;2023-12-04T01:32:04;6.30;99.90
4687;DHT22;2357;47.316;-1.348;2023-12-04T01:34:30;6.30;99.90
4687;DHT22;2357;47.316;-1.348;2023-12-04T01:36:55;6.30;99.90
4687;DHT22;2357;47.316;-1.348;2023-12-04T01:39:21;6.30;99.90
4687;DHT22;2357;47.316;-1.348;2023-12-04T01:41:47;6.40;99.90
4687;DHT22;2357;47.316;-1.348;2023-12-04T01:44:12;6.30;99.90
4687;DHT22;2357;47.316;-1.348;2023-12-04T01:46:38;6.30;99.90
4687;DHT22;2357;47.316;-1.348;2023-12-04T01:49:04;6.40;99.90
4687;DHT22;2357;47.316;-1.348;2023-12-04T01:51:30;6.40;99.90
4687;DHT22;2357;47.316;-1.348;2023-12-04T01:53:59;6.40;99.90
4687;DHT22;2357;47.316;-1.348;2023-12-04T01:56:26;6.30;99.90
4687;DHT22;2357;47.316;-1.348;2023-12-04T01:58:52;6.30;99.90
4687;DHT22;2357;47.316;-1.348;2023-12-04T02:01:18;6.40;99.90
4687;DHT22;2357;47.316;-1.348;2023-12-04T02:03:45;6.40;99.90
4687;DHT22;2357;47.316;-1.348;2023-12-04T02:06:12;6.40;99.90
4687;DHT22;2357;47.316;-1.348;2023-12-04T02:08:40;6.40;99.90
4687;DHT22;2357;47.316;-1.348;2023-12-04T02:11:06;6.40;99.90
4687;DHT22;2357;47.316;-1.348;2023-12-04T02:13:31;6.40;99.90
4687;DHT22;2357;47.316;-1.348;2023-12-04T02:15:58;6.50;99.90
4687;DHT22;2357;47.316;-1.348;2023-12-04T02:18:25;6.50;99.90
4687;DHT22;2357;47.316;-1.348;2023-12-04T02:20:51;6.50;99.90
4687;DHT22;2357;47.316;-1.348;2023-12-04T02:23:17;6.50;99.90
4687;DHT22;2357;47.316;-1.348;2023-12-04T02:25:42;6.50;99.90
4687;DHT22;2357;47.316;-1.348;2023-12-04T02:28:11;6.50;99.90
4687;DHT22;2357;47.316;-1.348;2023-12-04T02:30:41;6.60;99.90
4687;DHT22;2357;47.316;-1.348;2023-12-04T02:33:10;6.50;99.90
4687;DHT22;2357;47.316;-1.348;2023-12-04T02:35:38;6.60;99.90
4687;DHT22;2357;47.316;-1.348;2023-12-04T02:38:06;6.60;99.90
4687;DHT22;2357;47.316;-1.348;2023-12-04T02:40:32;6.60;99.90
4687;DHT22;2357;47.316;-1.348;2023-12-04T02:42:57;6.60;99.90
4687;DHT22;2357;47.316;-1.348;2023-12-04T02:45:24;6.70;99.90
4687;DHT22;2357;47.316;-1.348;2023-12-04T02:47:50;6.70;99.90
4687;DHT22;2357;47.316;-1.348;2023-12-04T02:50:15;6.70;99.90
4687;DHT22;2357;47.316;-1.348;2023-12-04T02:52:41;6.80;99.90
4687;DHT22;2357;47.316;-1.348;2023-12-04T02:55:07;6.80;99.90
4687;DHT22;2357;47.316;-1.348;2023-12-04T02:57:33;6.80;99.90
4687;DHT22;2357;47.316;-1.348;2023-12-04T02:59:58;6.80;99.90
4687;DHT22;2357;47.316;-1.348;2023-12-04T03:02:24;6.80;99.90
4687;DHT22;2357;47.316;-1.348;2023-12-04T03:04:49;6.80;99.90
4687;DHT22;2357;47.316;-1.348;2023-12-04T03:07:15;6.90;99.90
4687;DHT22;2357;47.316;-1.348;2023-12-04T03:09:40;6.90;99.90
4687;DHT22;2357;47.316;-1.348;2023-12-04T03:12:06;6.90;99.90
4687;DHT22;2357;47.316;-1.348;2023-12-04T03:14:32;6.90;99.90
4687;DHT22;2357;47.316;-1.348;2023-12-04T03:16:57;6.90;99.90
4687;DHT22;2357;47.316;-1.348;2023-12-04T03:19:23;6.90;99.90
4687;DHT22;2357;47.316;-1.348;2023-12-04T03:21:48;6.90;99.90
4687;DHT22;2357;47.316;-1.348;2023-12-04T03:24:14;6.90;99.90
4687;DHT22;2357;47.316;-1.348;2023-12-04T03:26:40;6.90;99.90
4687;DHT22;2357;47.316;-1.348;2023-12-04T03:29:06;6.90;99.90
4687;DHT22;2357;47.316;-1.348;2023-12-04T03:31:31;7.00;99.90
4687;DHT22;2357;47.316;-1.348;2023-12-04T03:33:59;7.00;99.90
4687;DHT22;2357;47.316;-1.348;2023-12-04T03:36:25;7.00;99.90
4687;DHT22;2357;47.316;-1.348;2023-12-04T03:38:50;7.00;99.90
4687;DHT22;2357;47.316;-1.348;2023-12-04T03:41:16;7.10;99.90
4687;DHT22;2357;47.316;-1.348;2023-12-04T03:43:42;7.10;99.90
4687;DHT22;2357;47.316;-1.348;2023-12-04T03:46:08;7.20;99.90
4687;DHT22;2357;47.316;-1.348;2023-12-04T03:48:34;7.20;99.90
4687;DHT22;2357;47.316;-1.348;2023-12-04T03:51:00;7.30;99.90
4687;DHT22;2357;47.316;-1.348;2023-12-04T03:53:26;7.30;99.90
4687;DHT22;2357;47.316;-1.348;2023-12-04T03:55:52;7.40;99.90
4687;DHT22;2357;47.316;-1.348;2023-12-04T03:58:17;7.40;99.90
4687;DHT22;2357;47.316;-1.348;2023-12-04T04:00:43;7.50;99.90
4687;DHT22;2357;47.316;-1.348;2023-12-04T04:03:09;7.50;99.90
4687;DHT22;2357;47.316;-1.348;2023-12-04T04:05:35;7.50;99.90
4687;DHT22;2357;47.316;-1.348;2023-12-04T04:08:01;7.50;99.90
4687;DHT22;2357;47.316;-1.348;2023-12-04T04:10:27;7.50;99.90
4687;DHT22;2357;47.316;-1.348;2023-12-04T04:12:52;7.50;99.90
4687;DHT22;2357;47.316;-1.348;2023-12-04T04:15:18;7.50;99.90
4687;DHT22;2357;47.316;-1.348;2023-12-04T04:17:43;7.60;99.90
4687;DHT22;2357;47.316;-1.348;2023-12-04T04:20:09;7.60;99.90
4687;DHT22;2357;47.316;-1.348;2023-12-04T04:22:37;7.60;99.90
4687;DHT22;2357;47.316;-1.348;2023-12-04T04:25:07;7.50;99.90
4687;DHT22;2357;47.316;-1.348;2023-12-04T04:27:33;7.60;99.90
4687;DHT22;2357;47.316;-1.348;2023-12-04T04:29:58;7.60;99.90
4687;DHT22;2357;47.316;-1.348;2023-12-04T04:32:24;7.60;99.90
4687;DHT22;2357;47.316;-1.348;2023-12-04T04:34:50;7.60;99.90
4687;DHT22;2357;47.316;-1.348;2023-12-04T04:37:15;7.60;99.90
4687;DHT22;2357;47.316;-1.348;2023-12-04T04:39:41;7.60;99.90
4687;DHT22;2357;47.316;-1.348;2023-12-04T04:42:06;7.60;99.90
4687;DHT22;2357;47.316;-1.348;2023-12-04T04:44:32;7.70;99.90
4687;DHT22;2357;47.316;-1.348;2023-12-04T04:46:58;7.70;99.90
4687;DHT22;2357;47.316;-1.348;2023-12-04T04:49:24;7.70;99.90
4687;DHT22;2357;47.316;-1.348;2023-12-04T04:51:49;7.70;99.90
4687;DHT22;2357;47.316;-1.348;2023-12-04T04:54:15;7.70;99.90
4687;DHT22;2357;47.316;-1.348;2023-12-04T04:56:40;7.70;99.90
4687;DHT22;2357;47.316;-1.348;2023-12-04T04:59:06;7.70;99.90
4687;DHT22;2357;47.316;-1.348;2023-12-04T05:01:32;7.70;99.90
4687;DHT22;2357;47.316;-1.348;2023-12-04T05:03:57;7.70;99.90
4687;DHT22;2357;47.316;-1.348;2023-12-04T05:06:23;7.70;99.90
4687;DHT22;2357;47.316;-1.348;2023-12-04T05:08:49;7.70;99.90
4687;DHT22;2357;47.316;-1.348;2023-12-04T05:11:18;7.70;99.90
4687;DHT22;2357;47.316;-1.348;2023-12-04T05:13:45;7.70;99.90
4687;DHT22;2357;47.316;-1.348;2023-12-04T05:16:10;7.70;99.90
4687;DHT22;2357;47.316;-1.348;2023-12-04T05:18:37;7.70;99.90
4687;DHT22;2357;47.316;-1.348;2023-12-04T05:21:03;7.80;99.90
4687;DHT22;2357;47.316;-1.348;2023-12-04T05:23:29;7.80;99.90
4687;DHT22;2357;47.316;-1.348;2023-12-04T05:25:54;7.80;99.90
4687;DHT22;2357;47.316;-1.348;2023-12-04T05:28:20;7.80;99.90
4687;DHT22;2357;47.316;-1.348;2023-12-04T05:30:45;7.80;99.90
4687;DHT22;2357;47.316;-1.348;2023-12-04T05:33:11;7.80;99.90
4687;DHT22;2357;47.316;-1.348;2023-12-04T05:35:36;8.00;99.90
4687;DHT22;2357;47.316;-1.348;2023-12-04T05:38:03;8.00;99.90
4687;DHT22;2357;47.316;-1.348;2023-12-04T05:40:28;8.10;99.90
4687;DHT22;2357;47.316;-1.348;2023-12-04T05:42:54;8.10;99.90
4687;DHT22;2357;47.316;-1.348;2023-12-04T05:45:19;8.20;99.90
4687;DHT22;2357;47.316;-1.348;2023-12-04T05:47:48;8.20;99.90
4687;DHT22;2357;47.316;-1.348;2023-12-04T05:50:13;8.20;99.90
4687;DHT22;2357;47.316;-1.348;2023-12-04T05:52:39;8.20;99.90
4687;DHT22;2357;47.316;-1.348;2023-12-04T05:55:05;8.20;99.90
4687;DHT22;2357;47.316;-1.348;2023-12-04T05:57:30;8.30;99.90
4687;DHT22;2357;47.316;-1.348;2023-12-04T05:59:56;8.30;99.90
4687;DHT22;2357;47.316;-1.348;2023-12-04T06:02:22;8.40;99.90
4687;DHT22;2357;47.316;-1.348;2023-12-04T06:04:47;8.40;99.90
4687;DHT22;2357;47.316;-1.348;2023-12-04T06:07:13;8.40;99.90
4687;DHT22;2357;47.316;-1.348;2023-12-04T06:09:38;8.40;99.90
4687;DHT22;2357;47.316;-1.348;2023-12-04T06:12:04;8.50;99.90
4687;DHT22;2357;47.316;-1.348;2023-12-04T06:14:34;8.50;99.90
4687;DHT22;2357;47.316;-1.348;2023-12-04T06:17:00;8.50;99.90
4687;DHT22;2357;47.316;-1.348;2023-12-04T06:19:25;8.50;99.90
4687;DHT22;2357;47.316;-1.348;2023-12-04T06:21:51;8.50;99.90
4687;DHT22;2357;47.316;-1.348;2023-12-04T06:24:18;8.50;99.90
4687;DHT22;2357;47.316;-1.348;2023-12-04T06:26:49;8.50;99.90
4687;DHT22;2357;47.316;-1.348;2023-12-04T06:29:15;8.50;99.90
4687;DHT22;2357;47.316;-1.348;2023-12-04T06:31:41;8.50;99.90
4687;DHT22;2357;47.316;-1.348;2023-12-04T06:34:07;8.60;99.90
4687;DHT22;2357;47.316;-1.348;2023-12-04T06:36:38;8.60;99.90
4687;DHT22;2357;47.316;-1.348;2023-12-04T06:39:06;8.60;99.90
4687;DHT22;2357;47.316;-1.348;2023-12-04T06:41:34;8.60;99.90
4687;DHT22;2357;47.316;-1.348;2023-12-04T06:44:00;8.60;99.90
4687;DHT22;2357;47.316;-1.348;2023-12-04T06:46:27;8.60;99.90
4687;DHT22;2357;47.316;-1.348;2023-12-04T06:48:57;8.60;99.90
4687;DHT22;2357;47.316;-1.348;2023-12-04T06:51:24;8.60;99.90
4687;DHT22;2357;47.316;-1.348;2023-12-04T06:53:50;8.60;99.90
4687;DHT22;2357;47.316;-1.348;2023-12-04T06:56:16;8.50;99.90
4687;DHT22;2357;47.316;-1.348;2023-12-04T06:58:41;8.60;99.90
4687;DHT22;2357;47.316;-1.348;2023-12-04T07:01:07;8.60;99.90
4687;DHT22;2357;47.316;-1.348;2023-12-04T07:03:32;8.50;99.90
4687;DHT22;2357;47.316;-1.348;2023-12-04T07:05:58;8.50;99.90
4687;DHT22;2357;47.316;-1.348;2023-12-04T07:08:24;8.60;99.90
4687;DHT22;2357;47.316;-1.348;2023-12-04T07:10:50;8.60;99.90
4687;DHT22;2357;47.316;-1.348;2023-12-04T07:13:16;8.60;99.90
4687;DHT22;2357;47.316;-1.348;2023-12-04T07:15:41;8.60;99.90
4687;DHT22;2357;47.316;-1.348;2023-12-04T07:18:07;8.70;99.90
4687;DHT22;2357;47.316;-1.348;2023-12-04T07:20:33;8.70;99.90
4687;DHT22;2357;47.316;-1.348;2023-12-04T07:22:58;8.70;99.90
4687;DHT22;2357;47.316;-1.348;2023-12-04T07:25:25;8.70;99.90
4687;DHT22;2357;47.316;-1.348;2023-12-04T07:27:51;8.70;99.90
4687;DHT22;2357;47.316;-1.348;2023-12-04T07:30:16;8.70;99.90
4687;DHT22;2357;47.316;-1.348;2023-12-04T07:32:42;8.80;99.90
4687;DHT22;2357;47.316;-1.348;2023-12-04T07:35:08;8.80;99.90
4687;DHT22;2357;47.316;-1.348;2023-12-04T07:37:34;8.80;99.90
4687;DHT22;2357;47.316;-1.348;2023-12-04T07:39:59;9.00;99.90
4687;DHT22;2357;47.316;-1.348;2023-12-04T07:42:25;9.10;99.90
4687;DHT22;2357;47.316;-1.348;2023-12-04T07:44:51;9.10;99.90
4687;DHT22;2357;47.316;-1.348;2023-12-04T07:47:16;9.10;99.90
4687;DHT22;2357;47.316;-1.348;2023-12-04T07:49:44;9.10;99.90
4687;DHT22;2357;47.316;-1.348;2023-12-04T07:52:10;9.10;99.90
4687;DHT22;2357;47.316;-1.348;2023-12-04T07:54:36;9.20;99.90
4687;DHT22;2357;47.316;-1.348;2023-12-04T07:57:02;9.30;99.90
4687;DHT22;2357;47.316;-1.348;2023-12-04T07:59:28;9.30;99.90
4687;DHT22;2357;47.316;-1.348;2023-12-04T08:01:53;9.30;99.90
4687;DHT22;2357;47.316;-1.348;2023-12-04T08:04:19;9.40;99.90
4687;DHT22;2357;47.316;-1.348;2023-12-04T08:06:45;9.50;99.90
4687;DHT22;2357;47.316;-1.348;2023-12-04T08:09:11;9.50;99.90
4687;DHT22;2357;47.316;-1.348;2023-12-04T08:11:37;9.50;99.90
4687;DHT22;2357;47.316;-1.348;2023-12-04T08:14:03;9.50;99.90
4687;DHT22;2357;47.316;-1.348;2023-12-04T08:16:29;9.50;99.90
4687;DHT22;2357;47.316;-1.348;2023-12-04T08:18:55;9.50;99.90
4687;DHT22;2357;47.316;-1.348;2023-12-04T08:21:21;9.50;99.90
4687;DHT22;2357;47.316;-1.348;2023-12-04T08:23:47;9.60;99.90
4687;DHT22;2357;47.316;-1.348;2023-12-04T08:26:12;9.60;99.90
4687;DHT22;2357;47.316;-1.348;2023-12-04T08:28:38;9.60;99.90
4687;DHT22;2357;47.316;-1.348;2023-12-04T08:31:08;9.70;99.90
4687;DHT22;2357;47.316;-1.348;2023-12-04T08:33:34;9.70;99.90
4687;DHT22;2357;47.316;-1.348;2023-12-04T08:36:03;9.80;99.90
4687;DHT22;2357;47.316;-1.348;2023-12-04T08:38:28;9.90;99.90
4687;DHT22;2357;47.316;-1.348;2023-12-04T08:40:54;10.00;99.90
4687;DHT22;2357;47.316;-1.348;2023-12-04T08:43:20;10.20;99.90
4687;DHT22;2357;47.316;-1.348;2023-12-04T08:45:46;10.30;99.90
4687;DHT22;2357;47.316;-1.348;2023-12-04T08:48:11;10.40;99.90
4687;DHT22;2357;47.316;-1.348;2023-12-04T08:50:37;10.50;99.90
4687;DHT22;2357;47.316;-1.348;2023-12-04T08:53:05;10.50;99.90
4687;DHT22;2357;47.316;-1.348;2023-12-04T08:55:31;10.60;99.90
4687;DHT22;2357;47.316;-1.348;2023-12-04T08:57:57;10.50;99.90
4687;DHT22;2357;47.316;-1.348;2023-12-04T09:00:22;10.50;99.90
4687;DHT22;2357;47.316;-1.348;2023-12-04T09:02:48;10.50;99.90
4687;DHT22;2357;47.316;-1.348;2023-12-04T09:05:14;10.50;99.90
4687;DHT22;2357;47.316;-1.348;2023-12-04T09:07:40;10.40;99.90
4687;DHT22;2357;47.316;-1.348;2023-12-04T09:10:06;10.50;99.90
4687;DHT22;2357;47.316;-1.348;2023-12-04T09:12:31;10.50;99.90
4687;DHT22;2357;47.316;-1.348;2023-12-04T09:14:57;10.40;99.90
4687;DHT22;2357;47.316;-1.348;2023-12-04T09:17:23;10.40;99.90
4687;DHT22;2357;47.316;-1.348;2023-12-04T09:19:48;10.40;99.90
4687;DHT22;2357;47.316;-1.348;2023-12-04T09:22:14;10.50;99.90
4687;DHT22;2357;47.316;-1.348;2023-12-04T09:24:40;10.50;99.90
4687;DHT22;2357;47.316;-1.348;2023-12-04T09:27:05;10.40;99.90
4687;DHT22;2357;47.316;-1.348;2023-12-04T09:29:34;10.50;99.90
4687;DHT22;2357;47.316;-1.348;2023-12-04T09:31:59;10.50;99.90
4687;DHT22;2357;47.316;-1.348;2023-12-04T09:34:25;10.50;99.90
4687;DHT22;2357;47.316;-1.348;2023-12-04T09:36:51;10.40;99.90
4687;DHT22;2357;47.316;-1.348;2023-12-04T09:39:16;10.50;99.90
4687;DHT22;2357;47.316;-1.348;2023-12-04T09:41:43;10.50;99.90
4687;DHT22;2357;47.316;-1.348;2023-12-04T09:44:09;10.50;99.90
4687;DHT22;2357;47.316;-1.348;2023-12-04T09:46:35;10.50;99.90
4687;DHT22;2357;47.316;-1.348;2023-12-04T09:49:02;10.60;99.90
4687;DHT22;2357;47.316;-1.348;2023-12-04T09:51:28;10.60;99.90
4687;DHT22;2357;47.316;-1.348;2023-12-04T09:53:54;10.50;99.90
4687;DHT22;2357;47.316;-1.348;2023-12-04T09:56:23;10.50;99.90
4687;DHT22;2357;47.316;-1.348;2023-12-04T09:58:52;10.60;99.90
4687;DHT22;2357;47.316;-1.348;2023-12-04T10:01:21;10.60;99.90
4687;DHT22;2357;47.316;-1.348;2023-12-04T10:03:47;10.70;99.90
4687;DHT22;2357;47.316;-1.348;2023-12-04T10:06:15;10.80;99.90
4687;DHT22;2357;47.316;-1.348;2023-12-04T10:08:44;11.00;99.90
4687;DHT22;2357;47.316;-1.348;2023-12-04T10:11:13;11.10;99.90
4687;DHT22;2357;47.316;-1.348;2023-12-04T10:13:40;11.20;99.90
4687;DHT22;2357;47.316;-1.348;2023-12-04T10:16:07;11.20;99.90
4687;DHT22;2357;47.316;-1.348;2023-12-04T10:18:34;11.10;99.90
4687;DHT22;2357;47.316;-1.348;2023-12-04T10:20:59;11.00;99.90
4687;DHT22;2357;47.316;-1.348;2023-12-04T10:23:44;11.00;99.90
4687;DHT22;2357;47.316;-1.348;2023-12-04T10:26:09;11.00;99.90
4687;DHT22;2357;47.316;-1.348;2023-12-04T10:28:39;10.90;99.90
4687;DHT22;2357;47.316;-1.348;2023-12-04T10:31:05;10.90;99.90
4687;DHT22;2357;47.316;-1.348;2023-12-04T10:33:32;10.90;99.90
4687;DHT22;2357;47.316;-1.348;2023-12-04T10:35:58;10.80;99.90
4687;DHT22;2357;47.316;-1.348;2023-12-04T10:38:23;10.80;99.90
4687;DHT22;2357;47.316;-1.348;2023-12-04T10:40:49;10.80;99.90
4687;DHT22;2357;47.316;-1.348;2023-12-04T10:43:15;10.80;99.90
4687;DHT22;2357;47.316;-1.348;2023-12-04T10:45:42;10.80;99.90
4687;DHT22;2357;47.316;-1.348;2023-12-04T10:48:09;10.80;99.90
4687;DHT22;2357;47.316;-1.348;2023-12-04T10:50:40;10.80;99.90
4687;DHT22;2357;47.316;-1.348;2023-12-04T10:53:11;10.90;99.90
4687;DHT22;2357;47.316;-1.348;2023-12-04T10:55:38;11.10;99.90
4687;DHT22;2357;47.316;-1.348;2023-12-04T10:58:06;11.20;99.90
4687;DHT22;2357;47.316;-1.348;2023-12-04T11:00:34;11.30;99.90
4687;DHT22;2357;47.316;-1.348;2023-12-04T11:03:28;11.30;99.90
4687;DHT22;2357;47.316;-1.348;2023-12-04T11:06:00;11.30;99.90
4687;DHT22;2357;47.316;-1.348;2023-12-04T11:08:29;11.30;99.90
4687;DHT22;2357;47.316;-1.348;2023-12-04T11:11:16;11.30;99.90
4687;DHT22;2357;47.316;-1.348;2023-12-04T11:13:49;11.30;99.90
4687;DHT22;2357;47.316;-1.348;2023-12-04T11:16:23;11.20;99.90
4687;DHT22;2357;47.316;-1.348;2023-12-04T11:18:56;11.20;99.90
4687;DHT22;2357;47.316;-1.348;2023-12-04T11:21:24;11.20;99.90
4687;DHT22;2357;47.316;-1.348;2023-12-04T11:23:50;11.10;99.90
4687;DHT22;2357;47.316;-1.348;2023-12-04T11:26:17;11.10;99.90
4687;DHT22;2357;47.316;-1.348;2023-12-04T11:28:43;11.10;99.90
4687;DHT22;2357;47.316;-1.348;2023-12-04T11:31:09;11.10;99.90
4687;DHT22;2357;47.316;-1.348;2023-12-04T11:33:38;11.10;99.90
4687;DHT22;2357;47.316;-1.348;2023-12-04T11:36:07;11.10;99.90
4687;DHT22;2357;47.316;-1.348;2023-12-04T11:38:33;11.10;99.90
4687;DHT22;2357;47.316;-1.348;2023-12-04T11:40:59;11.20;99.90
4687;DHT22;2357;47.316;-1.348;2023-12-04T11:43:26;11.30;99.90
4687;DHT22;2357;47.316;-1.348;2023-12-04T11:45:53;11.50;99.90
4687;DHT22;2357;47.316;-1.348;2023-12-04T11:48:25;11.60;99.90
4687;DHT22;2357;47.316;-1.348;2023-12-04T11:50:50;11.60;99.90
4687;DHT22;2357;47.316;-1.348;2023-12-04T11:53:16;11.80;99.90
4687;DHT22;2357;47.316;-1.348;2023-12-04T11:55:42;12.00;99.90
4687;DHT22;2357;47.316;-1.348;2023-12-04T11:58:11;12.10;99.90
4687;DHT22;2357;47.316;-1.348;2023-12-04T12:00:37;12.30;99.90
4687;DHT22;2357;47.316;-1.348;2023-12-04T12:03:07;12.40;99.90
4687;DHT22;2357;47.316;-1.348;2023-12-04T12:05:36;12.30;99.90
4687;DHT22;2357;47.316;-1.348;2023-12-04T12:08:04;12.20;99.90
4687;DHT22;2357;47.316;-1.348;2023-12-04T12:10:30;12.00;99.90
4687;DHT22;2357;47.316;-1.348;2023-12-04T12:12:56;12.00;99.90
4687;DHT22;2357;47.316;-1.348;2023-12-04T12:15:22;11.90;99.90
4687;DHT22;2357;47.316;-1.348;2023-12-04T12:17:49;12.00;99.90
4687;DHT22;2357;47.316;-1.348;2023-12-04T12:20:15;12.00;99.90
4687;DHT22;2357;47.316;-1.348;2023-12-04T12:22:41;11.90;99.90
4687;DHT22;2357;47.316;-1.348;2023-12-04T12:25:10;11.90;99.90
4687;DHT22;2357;47.316;-1.348;2023-12-04T12:27:36;11.90;99.90
4687;DHT22;2357;47.316;-1.348;2023-12-04T12:30:02;11.90;99.90
4687;DHT22;2357;47.316;-1.348;2023-12-04T12:32:35;11.90;99.90
4687;DHT22;2357;47.316;-1.348;2023-12-04T12:35:01;12.00;99.90
4687;DHT22;2357;47.316;-1.348;2023-12-04T12:37:28;12.00;99.90
4687;DHT22;2357;47.316;-1.348;2023-12-04T12:39:53;12.10;99.90
4687;DHT22;2357;47.316;-1.348;2023-12-04T12:42:26;12.10;99.90
4687;DHT22;2357;47.316;-1.348;2023-12-04T12:44:52;12.10;99.90
4687;DHT22;2357;47.316;-1.348;2023-12-04T12:47:18;12.20;99.90
4687;DHT22;2357;47.316;-1.348;2023-12-04T12:49:44;12.20;99.90
4687;DHT22;2357;47.316;-1.348;2023-12-04T12:52:11;12.30;99.90
4687;DHT22;2357;47.316;-1.348;2023-12-04T12:54:40;12.40;99.90
4687;DHT22;2357;47.316;-1.348;2023-12-04T12:57:06;12.40;99.90
4687;DHT22;2357;47.316;-1.348;2023-12-04T12:59:33;12.60;99.90
4687;DHT22;2357;47.316;-1.348;2023-12-04T13:01:59;12.70;99.90
4687;DHT22;2357;47.316;-1.348;2023-12-04T13:04:38;13.00;99.90
4687;DHT22;2357;47.316;-1.348;2023-12-04T13:07:05;13.80;99.90
4687;DHT22;2357;47.316;-1.348;2023-12-04T13:09:35;13.50;99.90
4687;DHT22;2357;47.316;-1.348;2023-12-04T13:12:04;13.30;99.90
4687;DHT22;2357;47.316;-1.348;2023-12-04T13:14:30;13.10;99.90
4687;DHT22;2357;47.316;-1.348;2023-12-04T13:16:56;14.30;99.90
4687;DHT22;2357;47.316;-1.348;2023-12-04T13:19:22;15.10;99.90
4687;DHT22;2357;47.316;-1.348;2023-12-04T13:21:49;13.80;99.90
4687;DHT22;2357;47.316;-1.348;2023-12-04T13:24:15;13.40;99.90
4687;DHT22;2357;47.316;-1.348;2023-12-04T13:26:40;13.50;99.90
4687;DHT22;2357;47.316;-1.348;2023-12-04T13:29:06;13.50;99.90
4687;DHT22;2357;47.316;-1.348;2023-12-04T13:31:34;13.50;99.90
4687;DHT22;2357;47.316;-1.348;2023-12-04T13:33:59;13.30;99.90
4687;DHT22;2357;47.316;-1.348;2023-12-04T13:36:25;13.00;99.90
4687;DHT22;2357;47.316;-1.348;2023-12-04T13:38:52;13.70;99.90
4687;DHT22;2357;47.316;-1.348;2023-12-04T13:41:18;13.70;99.90
4687;DHT22;2357;47.316;-1.348;2023-12-04T13:44:04;12.90;99.90
4687;DHT22;2357;47.316;-1.348;2023-12-04T13:46:30;12.50;99.90
4687;DHT22;2357;47.316;-1.348;2023-12-04T13:48:57;12.30;99.90
4687;DHT22;2357;47.316;-1.348;2023-12-04T13:51:23;12.20;99.90
4687;DHT22;2357;47.316;-1.348;2023-12-04T13:53:49;12.20;99.90
4687;DHT22;2357;47.316;-1.348;2023-12-04T13:56:16;12.10;99.90
4687;DHT22;2357;47.316;-1.348;2023-12-04T13:58:50;12.10;99.90
4687;DHT22;2357;47.316;-1.348;2023-12-04T14:01:26;12.90;99.90
4687;DHT22;2357;47.316;-1.348;2023-12-04T14:03:56;13.90;99.90
4687;DHT22;2357;47.316;-1.348;2023-12-04T14:06:27;15.40;99.90
4687;DHT22;2357;47.316;-1.348;2023-12-04T14:08:53;14.60;99.90
4687;DHT22;2357;47.316;-1.348;2023-12-04T14:11:19;14.00;99.90
4687;DHT22;2357;47.316;-1.348;2023-12-04T14:13:44;13.10;99.90
4687;DHT22;2357;47.316;-1.348;2023-12-04T14:16:10;12.80;99.90
4687;DHT22;2357;47.316;-1.348;2023-12-04T14:18:36;12.60;99.90
4687;DHT22;2357;47.316;-1.348;2023-12-04T14:21:02;12.60;99.90
4687;DHT22;2357;47.316;-1.348;2023-12-04T14:23:27;12.70;99.90
4687;DHT22;2357;47.316;-1.348;2023-12-04T14:25:53;12.80;99.90
4687;DHT22;2357;47.316;-1.348;2023-12-04T14:28:19;12.50;99.90
4687;DHT22;2357;47.316;-1.348;2023-12-04T14:30:47;12.50;99.90
4687;DHT22;2357;47.316;-1.348;2023-12-04T14:33:12;12.30;99.90
4687;DHT22;2357;47.316;-1.348;2023-12-04T14:35:38;12.20;99.90
4687;DHT22;2357;47.316;-1.348;2023-12-04T14:38:04;12.10;99.90
4687;DHT22;2357;47.316;-1.348;2023-12-04T14:40:32;12.20;99.90
4687;DHT22;2357;47.316;-1.348;2023-12-04T14:42:58;12.10;99.90
4687;DHT22;2357;47.316;-1.348;2023-12-04T14:45:24;12.10;99.90
4687;DHT22;2357;47.316;-1.348;2023-12-04T14:47:49;12.20;99.90
4687;DHT22;2357;47.316;-1.348;2023-12-04T14:50:17;12.10;99.90
4687;DHT22;2357;47.316;-1.348;2023-12-04T14:52:43;12.00;99.90
4687;DHT22;2357;47.316;-1.348;2023-12-04T14:55:16;11.90;99.90
4687;DHT22;2357;47.316;-1.348;2023-12-04T14:57:51;11.90;99.90
4687;DHT22;2357;47.316;-1.348;2023-12-04T15:00:35;12.00;99.90
4687;DHT22;2357;47.316;-1.348;2023-12-04T15:03:33;12.00;99.90
4687;DHT22;2357;47.316;-1.348;2023-12-04T15:06:30;12.00;99.90
4687;DHT22;2357;47.316;-1.348;2023-12-04T15:09:08;11.90;99.90
4687;DHT22;2357;47.316;-1.348;2023-12-04T15:11:52;11.70;99.90
4687;DHT22;2357;47.316;-1.348;2023-12-04T15:14:37;11.70;99.90
4687;DHT22;2357;47.316;-1.348;2023-12-04T15:17:15;11.70;99.90
4687;DHT22;2357;47.316;-1.348;2023-12-04T15:19:55;11.70;99.90
4687;DHT22;2357;47.316;-1.348;2023-12-04T15:22:21;11.70;99.90
4687;DHT22;2357;47.316;-1.348;2023-12-04T15:24:47;11.80;99.90
4687;DHT22;2357;47.316;-1.348;2023-12-04T15:27:12;11.70;99.90
4687;DHT22;2357;47.316;-1.348;2023-12-04T15:29:38;11.70;99.90
4687;DHT22;2357;47.316;-1.348;2023-12-04T15:32:04;11.60;99.90
4687;DHT22;2357;47.316;-1.348;2023-12-04T15:34:29;11.60;99.90
4687;DHT22;2357;47.316;-1.348;2023-12-04T15:36:55;11.60;99.90
4687;DHT22;2357;47.316;-1.348;2023-12-04T15:39:21;11.60;99.90
4687;DHT22;2357;47.316;-1.348;2023-12-04T15:41:46;11.50;99.90
4687;DHT22;2357;47.316;-1.348;2023-12-04T15:44:12;11.40;99.90
4687;DHT22;2357;47.316;-1.348;2023-12-04T15:46:38;11.30;99.90
4687;DHT22;2357;47.316;-1.348;2023-12-04T15:49:03;11.20;99.90
4687;DHT22;2357;47.316;-1.348;2023-12-04T15:51:29;11.10;99.90
4687;DHT22;2357;47.316;-1.348;2023-12-04T15:53:54;11.00;99.90